sensor_id;sensor_type;location;lat;lon;timestamp;P1;durP1;ratioP1;P2;durP2;ratioP2
4078;SDS011;2054;47.858;11.156;2022-11-23T03:45:45;0.80;;;0.80;;
4078;SDS011;2054;47.858;11.156;2022-11-23T03:48:13;2.60;;;0.68;;
4078;SDS011;2054;47.858;11.156;2022-11-23T03:50:40;1.48;;;0.80;;
4078;SDS011;2054;47.858;11.156;2022-11-23T03:53:07;1.13;;;0.82;;
4078;SDS011;2054;47.858;11.156;2022-11-23T03:55:35;2.85;;;0.70;;
4078;SDS011;2054;47.858;11.156;2022-11-23T03:58:02;4.03;;;1.00;;
4078;SDS011;2054;47.858;11.156;2022-11-23T04:00:29;0.90;;;0.60;;
4078;SDS011;2054;47.858;11.156;2022-11-23T04:02:58;2.95;;;1.27;;
4078;SDS011;2054;47.858;11.156;2022-11-23T04:05:25;3.70;;;0.90;;
4078;SDS011;2054;47.858;11.156;2022-11-23T04:07:52;3.85;;;1.00;;
4078;SDS011;2054;47.858;11.156;2022-11-23T04:10:20;1.38;;;0.90;;
4078;SDS011;2054;47.858;11.156;2022-11-23T04:12:49;2.55;;;0.88;;
4078;SDS011;2054;47.858;11.156;2022-11-23T04:15:16;1.42;;;0.85;;
4078;SDS011;2054;47.858;11.156;2022-11-23T04:17:43;1.08;;;0.70;;
4078;SDS011;2054;47.858;11.156;2022-11-23T04:20:12;0.95;;;0.90;;
4078;SDS011;2054;47.858;11.156;2022-11-23T04:22:39;3.45;;;1.00;;
4078;SDS011;2054;47.858;11.156;2022-11-23T04:25:08;2.30;;;0.90;;
4078;SDS011;2054;47.858;11.156;2022-11-23T04:27:35;2.22;;;0.80;;
4078;SDS011;2054;47.858;11.156;2022-11-23T04:30:03;2.70;;;0.80;;
4078;SDS011;2054;47.858;11.156;2022-11-23T04:32:30;2.92;;;0.80;;
4078;SDS011;2054;47.858;11.156;2022-11-23T04:34:57;1.23;;;0.80;;
4078;SDS011;2054;47.858;11.156;2022-11-23T04:37:26;2.10;;;1.13;;
4078;SDS011;2054;47.858;11.156;2022-11-23T04:39:53;0.65;;;0.65;;
4078;SDS011;2054;47.858;11.156;2022-11-23T04:42:20;1.92;;;1.10;;
4078;SDS011;2054;47.858;11.156;2022-11-23T04:44:47;1.00;;;0.90;;
4078;SDS011;2054;47.858;11.156;2022-11-23T04:47:14;3.75;;;0.80;;
4078;SDS011;2054;47.858;11.156;2022-11-23T04:49:41;1.67;;;0.70;;
4078;SDS011;2054;47.858;11.156;2022-11-23T04:52:09;1.70;;;0.80;;
4078;SDS011;2054;47.858;11.156;2022-11-23T04:54:37;3.38;;;1.10;;
4078;SDS011;2054;47.858;11.156;2022-11-23T04:57:05;1.17;;;0.90;;
4078;SDS011;2054;47.858;11.156;2022-11-23T04:59:32;2.67;;;1.15;;
4078;SDS011;2054;47.858;11.156;2022-11-23T05:01:59;2.85;;;0.93;;
4078;SDS011;2054;47.858;11.156;2022-11-23T05:04:26;1.23;;;1.00;;
4078;SDS011;2054;47.858;11.156;2022-11-23T05:06:53;2.67;;;0.70;;
4078;SDS011;2054;47.858;11.156;2022-11-23T05:09:21;4.07;;;1.05;;
4078;SDS011;2054;47.858;11.156;2022-11-23T05:11:49;1.63;;;0.75;;
4078;SDS011;2054;47.858;11.156;2022-11-23T05:14:16;0.90;;;0.80;;
4078;SDS011;2054;47.858;11.156;2022-11-23T05:16:43;2.30;;;0.82;;
4078;SDS011;2054;47.858;11.156;2022-11-23T05:19:11;0.90;;;0.80;;
4078;SDS011;2054;47.858;11.156;2022-11-23T05:21:38;3.42;;;0.75;;
4078;SDS011;2054;47.858;11.156;2022-11-23T05:24:05;3.10;;;1.05;;
4078;SDS011;2054;47.858;11.156;2022-11-23T05:26:32;2.75;;;0.90;;
4078;SDS011;2054;47.858;11.156;2022-11-23T05:29:01;1.52;;;0.63;;
4078;SDS011;2054;47.858;11.156;2022-11-23T05:31:28;1.95;;;0.75;;
4078;SDS011;2054;47.858;11.156;2022-11-23T05:33:55;2.42;;;0.88;;
4078;SDS011;2054;47.858;11.156;2022-11-23T05:36:22;1.98;;;1.23;;
4078;SDS011;2054;47.858;11.156;2022-11-23T05:38:50;1.10;;;1.00;;
4078;SDS011;2054;47.858;11.156;2022-11-23T05:41:17;2.88;;;1.20;;
4078;SDS011;2054;47.858;11.156;2022-11-23T05:43:44;3.72;;;1.25;;
4078;SDS011;2054;47.858;11.156;2022-11-23T05:46:12;2.50;;;1.02;;
4078;SDS011;2054;47.858;11.156;2022-11-23T05:48:40;2.90;;;1.65;;
4078;SDS011;2054;47.858;11.156;2022-11-23T05:51:07;3.38;;;1.67;;
4078;SDS011;2054;47.858;11.156;2022-11-23T05:53:34;3.85;;;1.65;;
4078;SDS011;2054;47.858;11.156;2022-11-23T05:56:01;4.57;;;2.40;;
4078;SDS011;2054;47.858;11.156;2022-11-23T05:58:29;4.03;;;1.70;;
4078;SDS011;2054;47.858;11.156;2022-11-23T06:00:56;2.00;;;1.27;;
4078;SDS011;2054;47.858;11.156;2022-11-23T06:03:25;2.28;;;1.13;;
4078;SDS011;2054;47.858;11.156;2022-11-23T06:05:54;3.17;;;1.10;;
4078;SDS011;2054;47.858;11.156;2022-11-23T06:08:22;3.50;;;1.35;;
4078;SDS011;2054;47.858;11.156;2022-11-23T06:10:49;1.67;;;0.70;;
4078;SDS011;2054;47.858;11.156;2022-11-23T06:13:16;3.45;;;1.02;;
4078;SDS011;2054;47.858;11.156;2022-11-23T06:15:43;1.63;;;1.10;;
4078;SDS011;2054;47.858;11.156;2022-11-23T06:18:10;0.95;;;0.80;;
4078;SDS011;2054;47.858;11.156;2022-11-23T06:20:39;1.48;;;0.90;;
4078;SDS011;2054;47.858;11.156;2022-11-23T06:23:06;1.77;;;0.80;;
4078;SDS011;2054;47.858;11.156;2022-11-23T06:25:33;2.90;;;0.88;;
4078;SDS011;2054;47.858;11.156;2022-11-23T06:28:02;1.45;;;0.90;;
4078;SDS011;2054;47.858;11.156;2022-11-23T06:30:30;1.33;;;0.88;;
4078;SDS011;2054;47.858;11.156;2022-11-23T06:32:57;1.35;;;0.80;;
4078;SDS011;2054;47.858;11.156;2022-11-23T06:35:24;1.95;;;0.80;;
4078;SDS011;2054;47.858;11.156;2022-11-23T06:37:53;3.25;;;0.80;;
4078;SDS011;2054;47.858;11.156;2022-11-23T06:40:20;2.65;;;0.93;;
4078;SDS011;2054;47.858;11.156;2022-11-23T06:42:48;3.55;;;0.70;;
4078;SDS011;2054;47.858;11.156;2022-11-23T06:45:15;1.35;;;0.90;;
4078;SDS011;2054;47.858;11.156;2022-11-23T06:47:42;1.45;;;0.77;;
4078;SDS011;2054;47.858;11.156;2022-11-23T06:50:10;0.73;;;0.70;;
4078;SDS011;2054;47.858;11.156;2022-11-23T06:52:38;0.88;;;0.80;;
4078;SDS011;2054;47.858;11.156;2022-11-23T06:55:07;4.93;;;1.10;;
4078;SDS011;2054;47.858;11.156;2022-11-23T06:57:34;0.77;;;0.60;;
4078;SDS011;2054;47.858;11.156;2022-11-23T07:00:01;4.65;;;1.00;;
4078;SDS011;2054;47.858;11.156;2022-11-23T07:02:30;0.95;;;0.75;;
4078;SDS011;2054;47.858;11.156;2022-11-23T07:04:57;4.65;;;0.80;;
4078;SDS011;2054;47.858;11.156;2022-11-23T07:07:24;1.55;;;0.80;;
4078;SDS011;2054;47.858;11.156;2022-11-23T07:09:51;3.22;;;1.10;;
4078;SDS011;2054;47.858;11.156;2022-11-23T07:12:20;1.95;;;0.88;;
4078;SDS011;2054;47.858;11.156;2022-11-23T07:14:47;1.90;;;1.02;;
4078;SDS011;2054;47.858;11.156;2022-11-23T07:17:15;2.25;;;1.33;;
4078;SDS011;2054;47.858;11.156;2022-11-23T07:19:42;3.22;;;2.30;;
4078;SDS011;2054;47.858;11.156;2022-11-23T07:22:09;5.30;;;2.85;;
4078;SDS011;2054;47.858;11.156;2022-11-23T07:24:36;4.97;;;2.22;;
4078;SDS011;2054;47.858;11.156;2022-11-23T07:27:04;4.15;;;2.15;;
4078;SDS011;2054;47.858;11.156;2022-11-23T07:29:32;4.70;;;2.15;;
4078;SDS011;2054;47.858;11.156;2022-11-23T07:31:59;5.40;;;2.47;;
4078;SDS011;2054;47.858;11.156;2022-11-23T07:34:26;4.57;;;2.28;;
4078;SDS011;2054;47.858;11.156;2022-11-23T07:36:54;2.67;;;2.08;;
4078;SDS011;2054;47.858;11.156;2022-11-23T07:39:21;4.72;;;2.08;;
4078;SDS011;2054;47.858;11.156;2022-11-23T07:41:48;6.15;;;2.75;;
4078;SDS011;2054;47.858;11.156;2022-11-23T07:44:15;4.55;;;2.85;;
4078;SDS011;2054;47.858;11.156;2022-11-23T07:46:44;9.63;;;2.80;;
4078;SDS011;2054;47.858;11.156;2022-11-23T07:49:11;6.60;;;2.65;;
4078;SDS011;2054;47.858;11.156;2022-11-23T07:51:38;4.85;;;2.72;;
4078;SDS011;2054;47.858;11.156;2022-11-23T07:54:05;4.75;;;2.90;;
4078;SDS011;2054;47.858;11.156;2022-11-23T07:56:33;6.15;;;3.20;;
4078;SDS011;2054;47.858;11.156;2022-11-23T07:59:00;6.53;;;3.70;;
4078;SDS011;2054;47.858;11.156;2022-11-23T08:01:27;5.38;;;2.35;;
4078;SDS011;2054;47.858;11.156;2022-11-23T08:03:56;5.03;;;2.72;;
4078;SDS011;2054;47.858;11.156;2022-11-23T08:06:24;4.28;;;2.03;;
4078;SDS011;2054;47.858;11.156;2022-11-23T08:08:51;3.72;;;2.10;;
4078;SDS011;2054;47.858;11.156;2022-11-23T08:11:19;3.75;;;1.73;;
4078;SDS011;2054;47.858;11.156;2022-11-23T08:13:47;1.98;;;1.80;;
4078;SDS011;2054;47.858;11.156;2022-11-23T08:16:14;4.05;;;2.08;;
4078;SDS011;2054;47.858;11.156;2022-11-23T08:18:41;3.90;;;1.52;;
4078;SDS011;2054;47.858;11.156;2022-11-23T08:21:10;3.88;;;1.30;;
4078;SDS011;2054;47.858;11.156;2022-11-23T08:23:37;3.50;;;1.65;;
4078;SDS011;2054;47.858;11.156;2022-11-23T08:26:04;1.75;;;1.20;;
4078;SDS011;2054;47.858;11.156;2022-11-23T08:28:31;2.90;;;1.60;;
4078;SDS011;2054;47.858;11.156;2022-11-23T08:31:04;3.70;;;1.48;;
4078;SDS011;2054;47.858;11.156;2022-11-23T08:33:31;1.85;;;1.60;;
4078;SDS011;2054;47.858;11.156;2022-11-23T08:36:01;1.98;;;1.38;;
4078;SDS011;2054;47.858;11.156;2022-11-23T08:38:30;1.88;;;1.20;;
4078;SDS011;2054;47.858;11.156;2022-11-23T08:40:57;1.00;;;0.90;;
4078;SDS011;2054;47.858;11.156;2022-11-23T08:43:25;3.33;;;1.35;;
4078;SDS011;2054;47.858;11.156;2022-11-23T08:45:53;4.78;;;1.30;;
4078;SDS011;2054;47.858;11.156;2022-11-23T08:48:20;2.38;;;1.08;;
4078;SDS011;2054;47.858;11.156;2022-11-23T08:50:47;3.00;;;1.20;;
4078;SDS011;2054;47.858;11.156;2022-11-23T08:53:14;1.77;;;1.02;;
4078;SDS011;2054;47.858;11.156;2022-11-23T08:55:43;1.83;;;1.05;;
4078;SDS011;2054;47.858;11.156;2022-11-23T08:58:10;2.88;;;1.30;;
4078;SDS011;2054;47.858;11.156;2022-11-23T09:00:37;4.03;;;1.20;;
4078;SDS011;2054;47.858;11.156;2022-11-23T09:03:05;2.67;;;1.02;;
4078;SDS011;2054;47.858;11.156;2022-11-23T09:05:32;1.63;;;1.15;;
4078;SDS011;2054;47.858;11.156;2022-11-23T09:07:59;3.15;;;1.17;;
4078;SDS011;2054;47.858;11.156;2022-11-23T09:10:26;1.70;;;1.20;;
4078;SDS011;2054;47.858;11.156;2022-11-23T09:12:55;1.90;;;1.55;;
4078;SDS011;2054;47.858;11.156;2022-11-23T09:15:22;2.45;;;1.30;;
4078;SDS011;2054;47.858;11.156;2022-11-23T09:17:49;2.22;;;1.20;;
4078;SDS011;2054;47.858;11.156;2022-11-23T09:20:17;3.58;;;1.17;;
4078;SDS011;2054;47.858;11.156;2022-11-23T09:22:48;2.15;;;1.30;;
4078;SDS011;2054;47.858;11.156;2022-11-23T09:25:16;5.90;;;1.23;;
4078;SDS011;2054;47.858;11.156;2022-11-23T09:27:43;3.45;;;1.30;;
4078;SDS011;2054;47.858;11.156;2022-11-23T09:30:12;5.00;;;1.60;;
4078;SDS011;2054;47.858;11.156;2022-11-23T09:32:40;1.40;;;1.20;;
4078;SDS011;2054;47.858;11.156;2022-11-23T09:35:07;5.38;;;1.48;;
4078;SDS011;2054;47.858;11.156;2022-11-23T09:37:34;1.52;;;1.15;;
4078;SDS011;2054;47.858;11.156;2022-11-23T09:40:02;2.67;;;1.63;;
4078;SDS011;2054;47.858;11.156;2022-11-23T09:42:33;2.50;;;1.33;;
4078;SDS011;2054;47.858;11.156;2022-11-23T09:45:20;3.53;;;1.40;;
4078;SDS011;2054;47.858;11.156;2022-11-23T09:47:53;2.45;;;1.33;;
4078;SDS011;2054;47.858;11.156;2022-11-23T09:50:26;3.17;;;1.70;;
4078;SDS011;2054;47.858;11.156;2022-11-23T09:52:53;1.42;;;1.30;;
4078;SDS011;2054;47.858;11.156;2022-11-23T09:55:22;4.70;;;1.10;;
4078;SDS011;2054;47.858;11.156;2022-11-23T09:57:51;5.13;;;1.58;;
4078;SDS011;2054;47.858;11.156;2022-11-23T10:00:22;1.15;;;1.00;;
4078;SDS011;2054;47.858;11.156;2022-11-23T10:02:50;2.20;;;1.20;;
4078;SDS011;2054;47.858;11.156;2022-11-23T10:05:18;3.50;;;1.10;;
4078;SDS011;2054;47.858;11.156;2022-11-23T10:07:48;5.00;;;1.05;;
4078;SDS011;2054;47.858;11.156;2022-11-23T10:10:25;1.77;;;0.95;;
4078;SDS011;2054;47.858;11.156;2022-11-23T10:12:57;0.70;;;0.70;;
4078;SDS011;2054;47.858;11.156;2022-11-23T10:15:28;1.73;;;0.95;;
4078;SDS011;2054;47.858;11.156;2022-11-23T10:20:48;2.22;;;1.20;;
4078;SDS011;2054;47.858;11.156;2022-11-23T10:23:20;2.55;;;1.00;;
4078;SDS011;2054;47.858;11.156;2022-11-23T10:25:52;3.33;;;1.00;;
4078;SDS011;2054;47.858;11.156;2022-11-23T10:28:20;2.40;;;0.90;;
4078;SDS011;2054;47.858;11.156;2022-11-23T10:30:52;1.60;;;0.80;;
4078;SDS011;2054;47.858;11.156;2022-11-23T10:33:23;2.40;;;0.60;;
4078;SDS011;2054;47.858;11.156;2022-11-23T10:35:52;1.40;;;0.77;;
4078;SDS011;2054;47.858;11.156;2022-11-23T10:38:20;3.03;;;0.90;;
4078;SDS011;2054;47.858;11.156;2022-11-23T10:40:50;1.90;;;0.70;;
4078;SDS011;2054;47.858;11.156;2022-11-23T10:43:22;3.60;;;1.00;;
4078;SDS011;2054;47.858;11.156;2022-11-23T10:45:52;1.63;;;0.68;;
4078;SDS011;2054;47.858;11.156;2022-11-23T10:48:39;1.33;;;1.00;;
4078;SDS011;2054;47.858;11.156;2022-11-23T10:51:14;3.60;;;0.90;;
4078;SDS011;2054;47.858;11.156;2022-11-23T10:53:42;2.00;;;0.90;;
4078;SDS011;2054;47.858;11.156;2022-11-23T10:56:10;3.17;;;0.93;;
4078;SDS011;2054;47.858;11.156;2022-11-23T10:58:40;2.17;;;0.90;;
4078;SDS011;2054;47.858;11.156;2022-11-23T11:01:11;1.90;;;0.90;;
4078;SDS011;2054;47.858;11.156;2022-11-23T11:03:39;1.27;;;0.75;;
4078;SDS011;2054;47.858;11.156;2022-11-23T11:06:07;2.78;;;0.73;;
4078;SDS011;2054;47.858;11.156;2022-11-23T11:08:35;3.15;;;0.73;;
4078;SDS011;2054;47.858;11.156;2022-11-23T11:11:03;2.47;;;0.95;;
4078;SDS011;2054;47.858;11.156;2022-11-23T11:13:32;4.68;;;0.98;;
4078;SDS011;2054;47.858;11.156;2022-11-23T11:16:07;2.15;;;0.80;;
4078;SDS011;2054;47.858;11.156;2022-11-23T11:18:45;0.90;;;0.60;;
4078;SDS011;2054;47.858;11.156;2022-11-23T11:21:16;1.88;;;0.80;;
4078;SDS011;2054;47.858;11.156;2022-11-23T11:23:46;3.13;;;0.80;;
4078;SDS011;2054;47.858;11.156;2022-11-23T11:26:17;2.47;;;0.57;;
4078;SDS011;2054;47.858;11.156;2022-11-23T11:28:46;2.67;;;0.70;;
4078;SDS011;2054;47.858;11.156;2022-11-23T11:31:20;2.80;;;1.33;;
4078;SDS011;2054;47.858;11.156;2022-11-23T11:33:52;2.15;;;0.70;;
4078;SDS011;2054;47.858;11.156;2022-11-23T11:36:21;2.83;;;0.80;;
4078;SDS011;2054;47.858;11.156;2022-11-23T11:38:50;1.38;;;0.60;;
4078;SDS011;2054;47.858;11.156;2022-11-23T11:41:19;1.42;;;0.60;;
4078;SDS011;2054;47.858;11.156;2022-11-23T11:43:49;2.47;;;0.80;;
4078;SDS011;2054;47.858;11.156;2022-11-23T11:46:20;2.28;;;0.70;;
4078;SDS011;2054;47.858;11.156;2022-11-23T11:48:48;2.75;;;0.70;;
4078;SDS011;2054;47.858;11.156;2022-11-23T11:51:20;3.70;;;0.70;;
4078;SDS011;2054;47.858;11.156;2022-11-23T11:53:50;2.33;;;0.60;;
4078;SDS011;2054;47.858;11.156;2022-11-23T11:56:21;1.65;;;0.68;;
4078;SDS011;2054;47.858;11.156;2022-11-23T11:58:50;1.60;;;0.60;;
4078;SDS011;2054;47.858;11.156;2022-11-23T12:01:28;3.08;;;0.60;;
4078;SDS011;2054;47.858;11.156;2022-11-23T12:03:59;1.08;;;0.50;;
4078;SDS011;2054;47.858;11.156;2022-11-23T12:06:34;0.65;;;0.50;;
4078;SDS011;2054;47.858;11.156;2022-11-23T12:09:02;1.83;;;0.80;;
4078;SDS011;2054;47.858;11.156;2022-11-23T12:11:31;4.50;;;1.00;;
4078;SDS011;2054;47.858;11.156;2022-11-23T12:13:59;1.15;;;0.60;;
4078;SDS011;2054;47.858;11.156;2022-11-23T12:16:28;0.82;;;0.60;;
4078;SDS011;2054;47.858;11.156;2022-11-23T12:19:09;2.40;;;0.90;;
4078;SDS011;2054;47.858;11.156;2022-11-23T12:21:50;2.72;;;0.55;;
4078;SDS011;2054;47.858;11.156;2022-11-23T12:24:24;3.13;;;0.50;;
4078;SDS011;2054;47.858;11.156;2022-11-23T12:26:55;0.98;;;0.63;;
4078;SDS011;2054;47.858;11.156;2022-11-23T12:29:30;2.90;;;1.10;;
4078;SDS011;2054;47.858;11.156;2022-11-23T12:32:11;0.93;;;0.68;;
4078;SDS011;2054;47.858;11.156;2022-11-23T12:34:52;2.33;;;0.98;;
4078;SDS011;2054;47.858;11.156;2022-11-23T12:37:26;2.75;;;0.68;;
4078;SDS011;2054;47.858;11.156;2022-11-23T12:40:08;1.63;;;0.80;;
4078;SDS011;2054;47.858;11.156;2022-11-23T12:42:40;1.67;;;0.85;;
4078;SDS011;2054;47.858;11.156;2022-11-23T12:45:13;3.28;;;0.70;;
4078;SDS011;2054;47.858;11.156;2022-11-23T12:47:46;2.90;;;0.77;;
4078;SDS011;2054;47.858;11.156;2022-11-23T12:50:19;3.78;;;0.85;;
4078;SDS011;2054;47.858;11.156;2022-11-23T12:52:54;1.33;;;0.80;;
4078;SDS011;2054;47.858;11.156;2022-11-23T12:55:24;1.67;;;0.50;;
4078;SDS011;2054;47.858;11.156;2022-11-23T12:57:57;3.83;;;0.70;;
4078;SDS011;2054;47.858;11.156;2022-11-23T13:00:26;3.83;;;0.90;;
4078;SDS011;2054;47.858;11.156;2022-11-23T13:03:13;1.55;;;0.60;;
4078;SDS011;2054;47.858;11.156;2022-11-23T13:05:49;1.73;;;0.80;;
4078;SDS011;2054;47.858;11.156;2022-11-23T13:08:24;2.65;;;0.63;;
4078;SDS011;2054;47.858;11.156;2022-11-23T13:11:03;1.85;;;0.70;;
4078;SDS011;2054;47.858;11.156;2022-11-23T13:13:44;0.90;;;0.55;;
4078;SDS011;2054;47.858;11.156;2022-11-23T13:16:19;2.13;;;1.48;;
4078;SDS011;2054;47.858;11.156;2022-11-23T13:18:57;2.63;;;0.68;;
4078;SDS011;2054;47.858;11.156;2022-11-23T13:21:29;4.07;;;1.00;;
4078;SDS011;2054;47.858;11.156;2022-11-23T13:23:56;1.15;;;0.70;;
4078;SDS011;2054;47.858;11.156;2022-11-23T13:26:24;2.33;;;1.25;;
4078;SDS011;2054;47.858;11.156;2022-11-23T13:28:52;2.30;;;0.88;;
4078;SDS011;2054;47.858;11.156;2022-11-23T13:31:30;2.33;;;1.25;;
4078;SDS011;2054;47.858;11.156;2022-11-23T13:34:01;0.93;;;0.60;;
4078;SDS011;2054;47.858;11.156;2022-11-23T13:36:41;1.02;;;0.68;;
4078;SDS011;2054;47.858;11.156;2022-11-23T13:41:57;2.55;;;0.60;;
4078;SDS011;2054;47.858;11.156;2022-11-23T13:44:27;2.63;;;0.60;;
4078;SDS011;2054;47.858;11.156;2022-11-23T13:46:56;2.25;;;0.50;;
4078;SDS011;2054;47.858;11.156;2022-11-23T13:49:29;0.80;;;0.70;;
4078;SDS011;2054;47.858;11.156;2022-11-23T13:52:03;4.50;;;0.82;;
4078;SDS011;2054;47.858;11.156;2022-11-23T13:54:30;1.75;;;0.70;;
4078;SDS011;2054;47.858;11.156;2022-11-23T13:56:59;2.28;;;1.25;;
4078;SDS011;2054;47.858;11.156;2022-11-23T13:59:28;2.15;;;0.85;;
4078;SDS011;2054;47.858;11.156;2022-11-23T14:01:56;0.85;;;0.60;;
4078;SDS011;2054;47.858;11.156;2022-11-23T14:04:24;0.50;;;0.50;;
4078;SDS011;2054;47.858;11.156;2022-11-23T14:06:53;0.90;;;0.63;;
4078;SDS011;2054;47.858;11.156;2022-11-23T14:09:23;0.77;;;0.50;;
4078;SDS011;2054;47.858;11.156;2022-11-23T14:12:02;2.30;;;0.90;;
4078;SDS011;2054;47.858;11.156;2022-11-23T14:17:25;1.13;;;0.50;;
4078;SDS011;2054;47.858;11.156;2022-11-23T14:20:09;3.70;;;0.60;;
4078;SDS011;2054;47.858;11.156;2022-11-23T14:22:41;2.05;;;0.45;;
4078;SDS011;2054;47.858;11.156;2022-11-23T14:27:55;2.20;;;0.50;;
4078;SDS011;2054;47.858;11.156;2022-11-23T14:30:34;0.70;;;0.60;;
4078;SDS011;2054;47.858;11.156;2022-11-23T14:33:09;1.13;;;0.50;;
4078;SDS011;2054;47.858;11.156;2022-11-23T14:35:41;0.82;;;0.55;;
4078;SDS011;2054;47.858;11.156;2022-11-23T14:38:26;0.50;;;0.47;;
4078;SDS011;2054;47.858;11.156;2022-11-23T14:40:57;1.23;;;0.57;;
4078;SDS011;2054;47.858;11.156;2022-11-23T14:43:27;1.42;;;0.68;;
4078;SDS011;2054;47.858;11.156;2022-11-23T14:45:58;0.80;;;0.47;;
4078;SDS011;2054;47.858;11.156;2022-11-23T14:48:27;1.48;;;0.57;;
4078;SDS011;2054;47.858;11.156;2022-11-23T14:50:55;1.77;;;0.50;;
4078;SDS011;2054;47.858;11.156;2022-11-23T14:53:26;2.15;;;0.70;;
4078;SDS011;2054;47.858;11.156;2022-11-23T14:55:55;2.85;;;0.65;;
4078;SDS011;2054;47.858;11.156;2022-11-23T14:58:22;1.40;;;0.50;;
4078;SDS011;2054;47.858;11.156;2022-11-23T15:00:52;0.45;;;0.45;;
4078;SDS011;2054;47.858;11.156;2022-11-23T15:03:25;3.95;;;0.60;;
4078;SDS011;2054;47.858;11.156;2022-11-23T15:05:55;1.10;;;0.50;;
4078;SDS011;2054;47.858;11.156;2022-11-23T15:08:24;1.05;;;0.55;;
4078;SDS011;2054;47.858;11.156;2022-11-23T15:10:57;2.50;;;0.70;;
4078;SDS011;2054;47.858;11.156;2022-11-23T15:13:27;2.10;;;0.70;;
4078;SDS011;2054;47.858;11.156;2022-11-23T15:15:55;0.63;;;0.40;;
4078;SDS011;2054;47.858;11.156;2022-11-23T15:18:26;0.82;;;0.60;;
4078;SDS011;2054;47.858;11.156;2022-11-23T15:20:54;0.80;;;0.57;;
4078;SDS011;2054;47.858;11.156;2022-11-23T15:23:23;0.93;;;0.60;;
4078;SDS011;2054;47.858;11.156;2022-11-23T15:25:52;0.85;;;0.70;;
4078;SDS011;2054;47.858;11.156;2022-11-23T15:28:22;1.23;;;0.60;;
4078;SDS011;2054;47.858;11.156;2022-11-23T15:30:50;3.63;;;0.82;;
4078;SDS011;2054;47.858;11.156;2022-11-23T15:33:18;0.55;;;0.47;;
4078;SDS011;2054;47.858;11.156;2022-11-23T15:35:46;1.92;;;0.50;;
4078;SDS011;2054;47.858;11.156;2022-11-23T15:38:14;4.40;;;0.65;;
4078;SDS011;2054;47.858;11.156;2022-11-23T15:40:42;0.90;;;0.60;;
4078;SDS011;2054;47.858;11.156;2022-11-23T15:43:10;2.58;;;0.70;;
4078;SDS011;2054;47.858;11.156;2022-11-23T15:45:57;0.57;;;0.40;;
4078;SDS011;2054;47.858;11.156;2022-11-23T15:48:26;0.75;;;0.43;;
4078;SDS011;2054;47.858;11.156;2022-11-23T15:50:55;1.92;;;0.30;;
4078;SDS011;2054;47.858;11.156;2022-11-23T15:53:23;0.55;;;0.40;;
4078;SDS011;2054;47.858;11.156;2022-11-23T15:55:51;0.65;;;0.50;;
4078;SDS011;2054;47.858;11.156;2022-11-23T15:58:18;2.85;;;0.40;;
4078;SDS011;2054;47.858;11.156;2022-11-23T16:00:48;0.45;;;0.40;;
4078;SDS011;2054;47.858;11.156;2022-11-23T16:03:19;1.25;;;0.50;;
4078;SDS011;2054;47.858;11.156;2022-11-23T16:08:28;3.38;;;0.60;;
4078;SDS011;2054;47.858;11.156;2022-11-23T16:11:00;1.95;;;0.60;;
4078;SDS011;2054;47.858;11.156;2022-11-23T16:13:34;2.10;;;0.60;;
4078;SDS011;2054;47.858;11.156;2022-11-23T16:16:03;1.92;;;0.40;;
4078;SDS011;2054;47.858;11.156;2022-11-23T16:18:31;0.30;;;0.30;;
4078;SDS011;2054;47.858;11.156;2022-11-23T16:20:58;0.40;;;0.40;;
4078;SDS011;2054;47.858;11.156;2022-11-23T16:23:27;1.88;;;0.63;;
4078;SDS011;2054;47.858;11.156;2022-11-23T16:25:56;0.82;;;0.30;;
4078;SDS011;2054;47.858;11.156;2022-11-23T16:28:25;2.78;;;0.50;;
4078;SDS011;2054;47.858;11.156;2022-11-23T16:30:53;4.15;;;0.70;;
4078;SDS011;2054;47.858;11.156;2022-11-23T16:33:23;2.85;;;0.65;;
4078;SDS011;2054;47.858;11.156;2022-11-23T16:35:50;2.13;;;0.80;;
4078;SDS011;2054;47.858;11.156;2022-11-23T16:38:17;1.10;;;0.77;;
4078;SDS011;2054;47.858;11.156;2022-11-23T16:40:45;4.68;;;0.82;;
4078;SDS011;2054;47.858;11.156;2022-11-23T16:43:12;2.40;;;1.00;;
4078;SDS011;2054;47.858;11.156;2022-11-23T16:45:41;3.17;;;0.80;;
4078;SDS011;2054;47.858;11.156;2022-11-23T16:48:23;2.92;;;0.88;;
4078;SDS011;2054;47.858;11.156;2022-11-23T16:51:01;1.58;;;1.33;;
4078;SDS011;2054;47.858;11.156;2022-11-23T16:53:28;4.35;;;1.30;;
4078;SDS011;2054;47.858;11.156;2022-11-23T16:55:57;3.70;;;1.42;;
4078;SDS011;2054;47.858;11.156;2022-11-23T16:58:26;4.47;;;1.95;;
4078;SDS011;2054;47.858;11.156;2022-11-23T17:00:55;4.55;;;1.67;;
4078;SDS011;2054;47.858;11.156;2022-11-23T17:03:22;5.68;;;1.60;;
4078;SDS011;2054;47.858;11.156;2022-11-23T17:05:49;4.03;;;1.77;;
4078;SDS011;2054;47.858;11.156;2022-11-23T17:08:18;6.28;;;1.85;;
4078;SDS011;2054;47.858;11.156;2022-11-23T17:10:45;5.57;;;2.30;;
4078;SDS011;2054;47.858;11.156;2022-11-23T17:13:13;3.90;;;2.25;;
4078;SDS011;2054;47.858;11.156;2022-11-23T17:15:43;3.33;;;2.35;;
4078;SDS011;2054;47.858;11.156;2022-11-23T17:18:10;5.13;;;2.42;;
4078;SDS011;2054;47.858;11.156;2022-11-23T17:20:39;6.05;;;3.38;;
4078;SDS011;2054;47.858;11.156;2022-11-23T17:23:06;5.63;;;3.00;;
4078;SDS011;2054;47.858;11.156;2022-11-23T17:25:34;4.82;;;2.55;;
4078;SDS011;2054;47.858;11.156;2022-11-23T17:28:02;4.30;;;2.25;;
4078;SDS011;2054;47.858;11.156;2022-11-23T17:30:29;5.97;;;2.25;;
4078;SDS011;2054;47.858;11.156;2022-11-23T17:32:57;4.68;;;2.72;;
4078;SDS011;2054;47.858;11.156;2022-11-23T17:35:25;4.15;;;2.10;;
4078;SDS011;2054;47.858;11.156;2022-11-23T17:37:52;5.10;;;1.70;;
4078;SDS011;2054;47.858;11.156;2022-11-23T17:40:19;2.75;;;1.83;;
4078;SDS011;2054;47.858;11.156;2022-11-23T17:42:49;6.00;;;2.38;;
4078;SDS011;2054;47.858;11.156;2022-11-23T17:45:16;9.70;;;4.50;;
4078;SDS011;2054;47.858;11.156;2022-11-23T17:47:43;9.55;;;4.68;;
4078;SDS011;2054;47.858;11.156;2022-11-23T17:50:11;8.35;;;3.83;;
4078;SDS011;2054;47.858;11.156;2022-11-23T17:52:41;12.27;;;4.18;;
4078;SDS011;2054;47.858;11.156;2022-11-23T17:55:09;7.35;;;4.20;;
4078;SDS011;2054;47.858;11.156;2022-11-23T17:57:36;9.00;;;4.28;;
4078;SDS011;2054;47.858;11.156;2022-11-23T18:00:06;8.63;;;4.22;;
4078;SDS011;2054;47.858;11.156;2022-11-23T18:02:38;23.92;;;12.35;;
4078;SDS011;2054;47.858;11.156;2022-11-23T18:05:05;8.57;;;4.28;;
4078;SDS011;2054;47.858;11.156;2022-11-23T18:07:32;6.38;;;3.25;;
4078;SDS011;2054;47.858;11.156;2022-11-23T18:10:00;5.10;;;2.22;;
4078;SDS011;2054;47.858;11.156;2022-11-23T18:12:28;5.43;;;2.70;;
4078;SDS011;2054;47.858;11.156;2022-11-23T18:14:55;4.82;;;2.85;;
4078;SDS011;2054;47.858;11.156;2022-11-23T18:17:23;7.53;;;2.75;;
4078;SDS011;2054;47.858;11.156;2022-11-23T18:19:51;4.78;;;2.60;;
4078;SDS011;2054;47.858;11.156;2022-11-23T18:22:18;3.97;;;2.50;;
4078;SDS011;2054;47.858;11.156;2022-11-23T18:24:45;6.28;;;2.83;;
4078;SDS011;2054;47.858;11.156;2022-11-23T18:27:12;6.60;;;3.75;;
4078;SDS011;2054;47.858;11.156;2022-11-23T18:29:40;7.35;;;4.68;;
4078;SDS011;2054;47.858;11.156;2022-11-23T18:32:07;3.28;;;2.00;;
4078;SDS011;2054;47.858;11.156;2022-11-23T18:34:36;11.32;;;5.68;;
4078;SDS011;2054;47.858;11.156;2022-11-23T18:37:03;9.40;;;4.75;;
4078;SDS011;2054;47.858;11.156;2022-11-23T18:39:30;8.52;;;5.07;;
4078;SDS011;2054;47.858;11.156;2022-11-23T18:41:57;5.53;;;3.70;;
4078;SDS011;2054;47.858;11.156;2022-11-23T18:44:24;4.07;;;2.80;;
4078;SDS011;2054;47.858;11.156;2022-11-23T18:46:52;7.47;;;4.45;;
4078;SDS011;2054;47.858;11.156;2022-11-23T18:49:19;9.07;;;4.45;;
4078;SDS011;2054;47.858;11.156;2022-11-23T18:51:48;8.95;;;5.30;;
4078;SDS011;2054;47.858;11.156;2022-11-23T18:54:15;16.33;;;7.28;;
4078;SDS011;2054;47.858;11.156;2022-11-23T18:56:42;10.75;;;6.40;;
4078;SDS011;2054;47.858;11.156;2022-11-23T18:59:09;12.63;;;6.35;;
4078;SDS011;2054;47.858;11.156;2022-11-23T19:01:38;10.57;;;6.00;;
4078;SDS011;2054;47.858;11.156;2022-11-23T19:04:05;9.90;;;5.47;;
4078;SDS011;2054;47.858;11.156;2022-11-23T19:06:35;12.88;;;6.32;;
4078;SDS011;2054;47.858;11.156;2022-11-23T19:09:04;11.02;;;6.13;;
4078;SDS011;2054;47.858;11.156;2022-11-23T19:11:31;11.20;;;6.15;;